Mildenhall, United Kingdom
Current Conditions -  °F | °C
As of 10:23 AM on Saturday 20 Dec 2014 (Local Time) from EGUN Reporting Station
Broken Clouds Broken Clouds  
Wind Chill: 39°   Ceiling: 4800
Heat Index: 46°   Visibility: 6mi
Dew Point: 37°   Wind: 18mph
Humidity: 71%   Direction: 260°W
Pressure: 30.18"   Gusts: 26mph
Location:  52.35°N, 0.52°E
Report Text: EGUN 201023Z AUTO 26016G23KT 9999 BKN048 08/03 A3018 RMK AO2 $
Loading
Personal Weather Stations






























Interactive Weather Map New forecast layout! Learn more

10-Day Weather Forecast

Advertisements
Track Severe Weather on mobile